Time;durP1;ratioP1;P1;durP2;ratioP2;P2;SDS_P1;SDS_P2;PMS_P1;PMS_P2;Temp;Humidity;BMP_temperature;BMP_pressure;BME280_temperature;BME280_humidity;BME280_pressure;Samples;Min_cycle;Max_cycle;Signal;HPM_P1;HPM_P2
2022/08/06 00:01:53;;;;;;;8.70;5.88;;;24.50;61.20;;;;;;5034279;28;20101;-11
2022/08/06 00:04:20;;;;;;;8.70;6.07;;;24.50;61.50;;;;;;5034072;28;20028;-10
2022/08/06 00:06:46;;;;;;;7.00;5.20;;;24.40;61.90;;;;;;5034091;28;20022;-10
2022/08/06 00:09:12;;;;;;;7.35;5.07;;;24.40;61.70;;;;;;5034138;28;20028;-20
2022/08/06 00:11:39;;;;;;;6.25;4.95;;;24.40;61.70;;;;;;5034171;28;20039;-10
2022/08/06 00:14:05;;;;;;;8.48;6.15;;;24.40;61.60;;;;;;5033847;28;20026;-11
2022/08/06 00:16:31;;;;;;;6.30;5.30;;;24.40;61.90;;;;;;5033925;28;20044;-11
2022/08/06 00:18:57;;;;;;;8.15;4.88;;;24.40;61.90;;;;;;5034322;28;20427;-11
2022/08/06 00:21:22;;;;;;;8.65;4.97;;;24.40;61.90;;;;;;5033630;28;20037;-11
2022/08/06 00:23:49;;;;;;;7.82;5.90;;;24.30;61.90;;;;;;5033694;28;20029;-10
2022/08/06 00:26:15;;;;;;;8.40;5.88;;;24.30;62.00;;;;;;5033404;28;20508;-11
2022/08/06 00:28:41;;;;;;;8.82;5.57;;;24.30;62.00;;;;;;5033543;28;20061;-11
2022/08/06 00:31:09;;;;;;;6.70;5.35;;;24.30;61.90;;;;;;5033833;28;20025;-10
2022/08/06 00:33:35;;;;;;;6.93;5.38;;;24.30;61.90;;;;;;5033454;28;20068;-11
2022/08/06 00:36:02;;;;;;;8.88;4.93;;;24.20;62.00;;;;;;5033362;28;20370;-10
2022/08/06 00:38:28;;;;;;;7.55;5.05;;;24.20;62.50;;;;;;5033524;28;20036;-10
2022/08/06 00:40:54;;;;;;;6.07;5.07;;;24.20;62.60;;;;;;5033469;28;20033;-11
2022/08/06 00:43:20;;;;;;;6.75;5.47;;;24.00;62.90;;;;;;5033149;28;20025;-10
2022/08/06 00:45:46;;;;;;;6.43;5.55;;;24.00;63.10;;;;;;5033329;28;20041;-10
2022/08/06 00:48:13;;;;;;;7.55;6.18;;;23.90;63.20;;;;;;5033566;28;20064;-11
2022/08/06 00:50:40;;;;;;;8.13;6.22;;;23.90;63.40;;;;;;5033435;28;20029;-9
2022/08/06 00:53:06;;;;;;;7.25;5.28;;;23.90;63.40;;;;;;5033065;28;20053;-9
2022/08/06 00:55:32;;;;;;;7.53;5.57;;;23.90;63.50;;;;;;5032902;28;20123;-11
2022/08/06 00:57:58;;;;;;;7.35;5.65;;;23.90;63.70;;;;;;5033760;28;20025;-10
2022/08/06 01:00:24;;;;;;;9.30;6.45;;;23.80;63.70;;;;;;5033147;28;20099;-11
2022/08/06 01:02:50;;;;;;;9.20;5.18;;;23.80;63.60;;;;;;5032272;28;20408;-11
2022/08/06 01:05:16;;;;;;;7.15;5.80;;;23.80;63.60;;;;;;5033383;28;20021;-10
2022/08/06 01:07:43;;;;;;;8.27;5.68;;;23.70;63.80;;;;;;5033077;28;20087;-10
2022/08/06 01:10:09;;;;;;;7.45;5.43;;;23.70;63.80;;;;;;5033091;28;20029;-10
2022/08/06 01:12:35;;;;;;;8.32;6.05;;;23.60;64.00;;;;;;5033107;28;20027;-10
2022/08/06 01:15:05;;;;;;;9.52;5.90;;;23.60;64.60;;;;;;5033006;28;20393;-10
2022/08/06 01:17:39;;;;;;;7.18;5.90;;;23.50;64.50;;;;;;5033521;28;20373;-11
2022/08/06 01:20:34;;;;;;;7.93;5.55;;;23.40;64.80;;;;;;5033038;28;20053;-11
2022/08/06 01:23:06;;;;;;;8.48;6.30;;;23.40;65.40;;;;;;5032899;28;20084;-11
2022/08/06 01:26:01;;;;;;;10.75;7.43;;;23.40;65.30;;;;;;5032970;28;20427;-10
2022/08/06 01:29:00;;;;;;;7.90;6.65;;;23.30;65.50;;;;;;5033087;28;20088;-10
2022/08/06 01:31:55;;;;;;;8.60;5.53;;;23.20;65.30;;;;;;5030008;28;20029;-11
2022/08/06 01:34:29;;;;;;;9.45;6.20;;;23.20;66.90;;;;;;5014381;28;20095;-11
2022/08/06 01:37:36;;;;;;;12.63;9.75;;;23.10;66.10;;;;;;5032651;28;20034;-11
2022/08/06 01:40:13;;;;;;;14.65;11.98;;;23.10;66.50;;;;;;5033145;28;20033;-11
2022/08/06 01:42:40;;;;;;;13.20;11.45;;;23.00;66.90;;;;;;5033122;28;20026;-10
2022/08/06 01:45:10;;;;;;;12.93;11.13;;;22.90;66.90;;;;;;5033055;28;20026;-10
2022/08/06 01:47:39;;;;;;;12.32;10.73;;;23.00;67.20;;;;;;5032927;28;20033;-10
2022/08/06 01:50:08;;;;;;;11.77;8.55;;;23.10;67.00;;;;;;5032705;28;20021;-11
2022/08/06 01:52:37;;;;;;;11.00;8.82;;;23.20;66.80;;;;;;5032355;28;20033;-11
2022/08/06 01:55:08;;;;;;;10.27;8.52;;;23.20;66.70;;;;;;5034753;28;20046;-11
2022/08/06 01:57:36;;;;;;;11.68;8.55;;;23.20;66.70;;;;;;5036402;28;20034;-10
2022/08/06 02:00:06;;;;;;;11.02;7.95;;;23.20;66.50;;;;;;5036306;28;20386;-10
2022/08/06 02:02:35;;;;;;;11.93;8.20;;;23.30;66.30;;;;;;5036118;28;20025;-10
2022/08/06 02:05:04;;;;;;;9.23;7.57;;;23.40;66.30;;;;;;5036285;28;20025;-10
2022/08/06 02:07:34;;;;;;;8.88;6.55;;;23.40;66.10;;;;;;5034913;28;20108;-11
2022/08/06 02:10:04;;;;;;;9.20;6.82;;;23.40;65.80;;;;;;5036370;28;20108;-10
2022/08/06 02:12:34;;;;;;;7.75;6.18;;;23.50;65.40;;;;;;5036299;28;20096;-11
2022/08/06 02:15:05;;;;;;;9.05;6.00;;;23.60;65.20;;;;;;5036105;28;20071;-11
2022/08/06 02:17:37;;;;;;;6.18;5.57;;;23.70;65.00;;;;;;5037108;28;20033;-11
2022/08/06 02:20:05;;;;;;;7.20;5.60;;;23.80;64.50;;;;;;5036411;28;20108;-11
2022/08/06 02:22:34;;;;;;;10.65;6.18;;;23.80;64.10;;;;;;5035898;28;20044;-11
2022/08/06 02:25:04;;;;;;;6.88;5.43;;;23.90;63.70;;;;;;5036218;28;20493;-11
2022/08/06 02:27:32;;;;;;;8.27;5.50;;;24.00;63.20;;;;;;5036192;28;20030;-11
2022/08/06 02:30:00;;;;;;;5.72;4.63;;;24.00;63.00;;;;;;5035792;28;20049;-10
2022/08/06 02:32:26;;;;;;;5.80;4.70;;;24.10;63.00;;;;;;5035582;28;20477;-11
2022/08/06 02:34:53;;;;;;;6.68;4.88;;;24.10;62.80;;;;;;5035970;28;20022;-10
2022/08/06 02:37:28;;;;;;;5.38;4.50;;;24.00;62.80;;;;;;5035823;28;20056;-11
2022/08/06 02:39:59;;;;;;;6.10;4.38;;;24.00;63.00;;;;;;5036006;28;20025;-11
2022/08/06 02:42:32;;;;;;;7.30;4.60;;;23.90;63.10;;;;;;5035377;28;20021;-11
2022/08/06 02:45:25;;;;;;;5.68;4.70;;;23.90;63.20;;;;;;5035555;28;20026;-11
2022/08/06 02:48:08;;;;;;;4.85;4.35;;;23.80;63.70;;;;;;5035579;28;20017;-11
2022/08/06 02:50:37;;;;;;;5.27;4.40;;;23.70;63.60;;;;;;5035319;28;20029;-11
2022/08/06 02:53:11;;;;;;;5.40;4.50;;;23.60;63.60;;;;;;5035315;28;20118;-11
2022/08/06 02:55:42;;;;;;;6.13;4.80;;;23.60;63.90;;;;;;5034936;28;20061;-11
2022/08/06 02:58:17;;;;;;;10.23;6.20;;;23.50;63.80;;;;;;5035584;28;20033;-11
2022/08/06 03:00:47;;;;;;;5.80;4.95;;;23.40;64.00;;;;;;5035304;28;20385;-11
2022/08/06 03:03:15;;;;;;;4.40;4.00;;;23.40;64.10;;;;;;5035546;28;20029;-11
2022/08/06 03:05:44;;;;;;;5.55;4.60;;;23.40;64.00;;;;;;5034695;28;20047;-11
2022/08/06 03:08:16;;;;;;;4.65;4.25;;;23.40;64.10;;;;;;5035285;28;20029;-10
2022/08/06 03:10:43;;;;;;;7.32;5.45;;;23.30;64.40;;;;;;5035125;28;20500;-12
2022/08/06 03:13:09;;;;;;;8.25;5.45;;;23.30;64.80;;;;;;5034961;28;20032;-11
2022/08/06 03:15:37;;;;;;;6.32;5.15;;;23.10;65.30;;;;;;5034844;28;20117;-11
2022/08/06 03:18:05;;;;;;;4.68;4.18;;;23.00;65.80;;;;;;5035520;28;20029;-11
2022/08/06 03:20:35;;;;;;;4.80;4.30;;;22.90;66.10;;;;;;5034985;28;20112;-10
2022/08/06 03:23:08;;;;;;;6.47;5.00;;;22.80;66.40;;;;;;5034801;28;20477;-11
2022/08/06 03:25:38;;;;;;;8.38;4.50;;;22.80;66.90;;;;;;5035266;28;20029;-11
2022/08/06 03:28:04;;;;;;;8.13;5.03;;;22.70;67.10;;;;;;5034896;28;20061;-11
2022/08/06 03:30:32;;;;;;;5.38;4.72;;;22.60;67.20;;;;;;5034476;28;20075;-11
2022/08/06 03:33:10;;;;;;;6.43;5.05;;;22.50;67.40;;;;;;5034567;28;20051;-11
2022/08/06 03:35:38;;;;;;;8.13;6.13;;;22.50;67.40;;;;;;5034892;28;20031;-12
2022/08/06 03:38:10;;;;;;;7.68;6.10;;;22.50;67.70;;;;;;5034775;28;20036;-12
2022/08/06 03:40:39;;;;;;;7.55;5.28;;;22.40;67.80;;;;;;5034278;28;20036;-11
2022/08/06 03:43:05;;;;;;;6.75;5.22;;;22.40;68.00;;;;;;5034796;28;20351;-11
2022/08/06 03:45:38;;;;;;;8.30;5.20;;;22.30;68.00;;;;;;5033438;28;20033;-10
2022/08/06 03:48:06;;;;;;;5.88;5.25;;;22.30;68.20;;;;;;5034478;28;20083;-10
2022/08/06 03:50:43;;;;;;;6.90;5.90;;;22.20;68.50;;;;;;5034172;28;20030;-11
2022/08/06 03:53:17;;;;;;;7.55;5.45;;;22.20;69.20;;;;;;5034182;28;20116;-11
2022/08/06 03:55:45;;;;;;;9.20;5.75;;;22.20;69.00;;;;;;5033938;28;20524;-11
2022/08/06 03:58:14;;;;;;;7.75;6.35;;;22.10;69.40;;;;;;5034507;28;20067;-12
2022/08/06 04:00:52;;;;;;;9.13;5.95;;;22.00;70.30;;;;;;5034118;28;20083;-10
2022/08/06 04:03:20;;;;;;;7.82;6.18;;;21.90;70.10;;;;;;5034064;28;20027;-10
2022/08/06 04:05:46;;;;;;;7.05;6.28;;;21.90;69.90;;;;;;5033982;28;20477;-10
2022/08/06 04:08:13;;;;;;;7.82;6.50;;;21.90;69.90;;;;;;5033945;28;20023;-10
2022/08/06 04:10:40;;;;;;;11.55;6.95;;;21.80;69.90;;;;;;5033927;28;20025;-11
2022/08/06 04:13:10;;;;;;;6.88;5.93;;;21.90;69.90;;;;;;5034136;28;20022;-11
2022/08/06 04:15:37;;;;;;;8.30;6.65;;;21.80;70.10;;;;;;5032536;28;20036;-11
2022/08/06 04:18:08;;;;;;;9.70;7.55;;;21.90;70.20;;;;;;5032890;28;20063;-11
2022/08/06 04:20:35;;;;;;;10.25;7.15;;;21.80;70.30;;;;;;5033979;28;20111;-11
2022/08/06 04:23:02;;;;;;;7.70;6.80;;;21.80;70.40;;;;;;5033777;28;20032;-12
2022/08/06 04:25:33;;;;;;;17.42;8.60;;;21.80;70.40;;;;;;5033660;28;20029;-11
2022/08/06 04:28:01;;;;;;;10.13;7.78;;;21.90;70.50;;;;;;5033684;28;20516;-12
2022/08/06 04:30:28;;;;;;;10.60;6.85;;;21.90;70.80;;;;;;5033671;28;20116;-10
2022/08/06 04:32:54;;;;;;;12.43;7.65;;;21.90;70.70;;;;;;5033432;28;20029;-11
2022/08/06 04:35:21;;;;;;;15.82;10.10;;;21.90;70.70;;;;;;5032718;28;20080;-10
2022/08/06 04:37:49;;;;;;;10.50;7.22;;;22.00;70.60;;;;;;5033628;28;20037;-10
2022/08/06 04:40:16;;;;;;;11.60;7.85;;;22.00;70.50;;;;;;5033347;28;20040;-12
2022/08/06 04:42:42;;;;;;;10.85;7.18;;;22.10;70.40;;;;;;5033639;28;20060;-11
2022/08/06 04:45:09;;;;;;;13.30;9.30;;;22.10;70.30;;;;;;5033780;28;20080;-11
2022/08/06 04:47:37;;;;;;;11.60;10.23;;;22.20;70.20;;;;;;5033329;28;20040;-11
2022/08/06 04:50:04;;;;;;;13.85;10.35;;;22.30;70.30;;;;;;5033563;28;20021;-10
2022/08/06 04:52:30;;;;;;;13.35;9.13;;;22.30;70.50;;;;;;5033983;28;20025;-10
2022/08/06 04:54:57;;;;;;;14.27;10.00;;;22.40;70.40;;;;;;5031842;28;20386;-11
2022/08/06 04:57:23;;;;;;;10.75;8.80;;;22.40;70.20;;;;;;5033737;28;20037;-11
2022/08/06 04:59:49;;;;;;;10.13;7.85;;;22.50;70.10;;;;;;5033247;28;20079;-11
2022/08/06 05:02:14;;;;;;;10.95;9.52;;;22.60;69.70;;;;;;5033173;28;20104;-12
2022/08/06 05:04:43;;;;;;;9.65;7.25;;;22.80;69.40;;;;;;5033524;28;20021;-10
2022/08/06 05:07:08;;;;;;;23.52;11.40;;;22.80;69.10;;;;;;5032982;28;20024;-10
2022/08/06 05:09:35;;;;;;;10.10;8.63;;;22.90;69.30;;;;;;5033078;28;20037;-11
2022/08/06 05:12:09;;;;;;;11.90;8.52;;;23.00;69.60;;;;;;5032939;28;20493;-11
2022/08/06 05:14:42;;;;;;;9.10;7.50;;;23.10;68.90;;;;;;5032910;28;20053;-11
2022/08/06 05:17:14;;;;;;;9.63;7.55;;;23.30;69.10;;;;;;5033324;28;20038;-11
2022/08/06 05:19:50;;;;;;;11.88;8.23;;;23.40;68.90;;;;;;5033647;28;20056;-10
2022/08/06 05:22:19;;;;;;;10.27;8.15;;;23.50;68.60;;;;;;5033521;28;20033;-11
2022/08/06 05:24:47;;;;;;;10.45;7.40;;;23.60;68.10;;;;;;5032075;28;20029;-11
2022/08/06 05:27:14;;;;;;;11.05;8.02;;;23.70;67.90;;;;;;5032942;28;20025;-11
2022/08/06 05:29:41;;;;;;;13.27;10.20;;;23.90;67.70;;;;;;5036257;28;20021;-10
2022/08/06 05:32:07;;;;;;;9.65;8.15;;;23.90;67.60;;;;;;5037174;28;20072;-10
2022/08/06 05:34:34;;;;;;;12.10;8.45;;;24.10;67.40;;;;;;5037057;28;20036;-11
2022/08/06 05:37:00;;;;;;;10.50;6.93;;;24.20;67.30;;;;;;5037095;28;20029;-10
2022/08/06 05:39:26;;;;;;;10.73;9.43;;;24.40;67.00;;;;;;5037088;28;20025;-11
2022/08/06 05:41:52;;;;;;;12.23;8.60;;;24.50;66.50;;;;;;5036768;28;20057;-11
2022/08/06 05:44:18;;;;;;;8.57;7.32;;;24.60;66.30;;;;;;5036672;28;20104;-11
2022/08/06 05:46:57;;;;;;;15.10;9.25;;;24.80;65.90;;;;;;5036666;28;20052;-10
2022/08/06 05:49:37;;;;;;;11.35;7.93;;;25.00;65.60;;;;;;5037059;28;20021;-11
2022/08/06 05:52:09;;;;;;;10.23;7.25;;;25.10;65.20;;;;;;5037088;28;20446;-11
2022/08/06 05:55:02;;;;;;;9.65;7.38;;;25.30;64.70;;;;;;5036336;28;20052;-11
2022/08/06 05:57:44;;;;;;;8.85;6.80;;;25.40;64.40;;;;;;5030765;28;20121;-11
2022/08/06 06:00:13;;;;;;;7.97;7.18;;;25.60;64.30;;;;;;5036453;28;20033;-9
2022/08/06 06:02:44;;;;;;;10.07;7.60;;;25.70;63.90;;;;;;5036344;28;20428;-10
2022/08/06 06:05:12;;;;;;;9.70;7.15;;;25.90;63.60;;;;;;5036465;28;20038;-11
2022/08/06 06:07:39;;;;;;;12.48;7.25;;;26.00;63.10;;;;;;5036243;28;20473;-11
2022/08/06 06:10:07;;;;;;;9.57;8.18;;;26.20;62.80;;;;;;5036164;28;20029;-10
2022/08/06 06:12:34;;;;;;;12.07;10.88;;;26.30;62.40;;;;;;5035961;28;20027;-10
2022/08/06 06:15:05;;;;;;;9.15;7.43;;;26.40;62.00;;;;;;5036720;28;20068;-11
2022/08/06 06:17:50;;;;;;;8.35;6.65;;;26.60;61.50;;;;;;5036019;28;20116;-10
2022/08/06 06:20:20;;;;;;;8.38;6.43;;;26.70;61.20;;;;;;5036200;28;20363;-10
2022/08/06 06:23:11;;;;;;;8.27;6.78;;;26.90;61.00;;;;;;5036102;28;20067;-10
2022/08/06 06:25:51;;;;;;;8.25;6.80;;;27.00;60.70;;;;;;5036282;28;20029;-10
2022/08/06 06:28:26;;;;;;;8.15;6.07;;;27.10;60.50;;;;;;5036341;28;20021;-11
2022/08/06 06:31:06;;;;;;;8.65;6.30;;;27.20;60.30;;;;;;5036297;28;20060;-11
2022/08/06 06:33:47;;;;;;;7.28;5.97;;;27.30;60.20;;;;;;5034626;28;20075;-11
2022/08/06 06:36:28;;;;;;;8.82;6.70;;;27.50;60.10;;;;;;5036372;28;20029;-10
2022/08/06 06:38:57;;;;;;;9.73;5.95;;;27.60;59.90;;;;;;5035675;28;20055;-11
2022/08/06 06:41:43;;;;;;;9.35;5.50;;;27.80;59.20;;;;;;5034809;28;20044;-11
2022/08/06 06:44:21;;;;;;;6.35;4.85;;;28.00;58.40;;;;;;5035853;28;20513;-11
2022/08/06 06:46:53;;;;;;;6.65;4.70;;;28.20;57.80;;;;;;5035780;28;20037;-11
2022/08/06 06:49:22;;;;;;;6.10;5.00;;;28.40;57.40;;;;;;5035514;28;20030;-11
2022/08/06 06:51:53;;;;;;;8.23;5.20;;;28.50;56.70;;;;;;5035838;28;20539;-11
2022/08/06 06:54:29;;;;;;;6.38;4.88;;;28.70;55.90;;;;;;5035681;28;20025;-10
2022/08/06 06:56:56;;;;;;;7.80;5.32;;;28.90;55.40;;;;;;5035340;28;20040;-11
2022/08/06 06:59:35;;;;;;;5.50;4.75;;;29.10;54.50;;;;;;5035697;28;20026;-10
2022/08/06 07:02:04;;;;;;;5.93;4.72;;;29.30;53.60;;;;;;5035340;28;20116;-9
2022/08/06 07:04:31;;;;;;;7.18;4.88;;;29.50;53.20;;;;;;5035127;28;20021;-9
2022/08/06 07:06:59;;;;;;;8.98;5.13;;;29.60;52.60;;;;;;5035030;28;20026;-10
2022/08/06 07:09:29;;;;;;;6.25;4.55;;;29.80;52.40;;;;;;5035397;28;20025;-10
2022/08/06 07:11:58;;;;;;;5.47;4.70;;;30.00;51.80;;;;;;5035363;28;20025;-10
2022/08/06 07:14:26;;;;;;;5.25;4.57;;;30.20;51.80;;;;;;5035346;28;20014;-10
2022/08/06 07:16:55;;;;;;;5.43;4.50;;;30.40;51.60;;;;;;5035162;28;20061;-10
2022/08/06 07:19:23;;;;;;;7.18;4.85;;;30.50;51.00;;;;;;5035044;28;20473;-10
2022/08/06 07:21:50;;;;;;;6.47;4.22;;;30.80;50.50;;;;;;5034805;28;20116;-10
2022/08/06 07:24:17;;;;;;;5.32;4.55;;;30.90;50.20;;;;;;5034831;28;20421;-11
2022/08/06 07:26:50;;;;;;;9.00;4.45;;;31.10;49.80;;;;;;5034701;28;20068;-10
2022/08/06 07:29:17;;;;;;;7.57;4.43;;;31.40;48.30;;;;;;5034817;28;20022;-10
2022/08/06 07:31:46;;;;;;;5.10;3.80;;;31.60;48.20;;;;;;5033441;28;20370;-10
2022/08/06 07:34:14;;;;;;;6.20;4.18;;;31.80;48.10;;;;;;5034696;28;20033;-10
2022/08/06 07:36:48;;;;;;;4.45;4.03;;;32.00;47.40;;;;;;5034708;28;20382;-11
2022/08/06 07:39:26;;;;;;;5.15;3.90;;;32.20;46.00;;;;;;5034837;28;20485;-10
2022/08/06 07:41:55;;;;;;;6.10;4.15;;;32.40;46.20;;;;;;5034881;28;20029;-10
2022/08/06 07:44:27;;;;;;;6.88;4.40;;;32.50;45.60;;;;;;5034276;28;20028;-10
2022/08/06 07:47:02;;;;;;;6.22;3.60;;;32.70;43.10;;;;;;5034428;28;20164;-10
2022/08/06 07:49:37;;;;;;;6.82;3.55;;;32.90;44.00;;;;;;5034285;28;20029;-11
2022/08/06 07:52:05;;;;;;;5.43;3.92;;;33.10;42.30;;;;;;5034352;28;20035;-11
2022/08/06 07:54:32;;;;;;;4.03;3.53;;;33.20;43.20;;;;;;5034437;28;20053;-10
2022/08/06 07:56:59;;;;;;;4.13;3.58;;;33.30;42.90;;;;;;5034576;28;20123;-10
2022/08/06 07:59:26;;;;;;;4.50;3.30;;;33.30;42.90;;;;;;5034103;28;20041;-10
2022/08/06 08:01:52;;;;;;;4.68;3.70;;;33.50;42.70;;;;;;5034387;28;20050;-11
2022/08/06 08:07:05;;;;;;;4.43;3.58;;;34.00;41.20;;;;;;5034306;28;20037;-9
2022/08/06 08:09:33;;;;;;;4.90;3.80;;;34.20;41.40;;;;;;5034006;28;20109;-11
2022/08/06 08:12:00;;;;;;;4.60;3.70;;;34.30;40.80;;;;;;5034275;28;20037;-9
2022/08/06 08:14:26;;;;;;;3.78;3.47;;;34.40;40.60;;;;;;5032461;28;20032;-10
2022/08/06 08:16:53;;;;;;;5.28;3.70;;;34.50;40.80;;;;;;5033763;28;20033;-10
2022/08/06 08:19:23;;;;;;;4.05;3.55;;;34.80;40.20;;;;;;5034124;28;20053;-10
2022/08/06 08:21:56;;;;;;;3.97;3.60;;;35.20;39.90;;;;;;5033694;28;20473;-12
2022/08/06 08:24:23;;;;;;;5.78;3.78;;;35.60;39.00;;;;;;5033820;28;20076;-11
2022/08/06 08:26:50;;;;;;;4.03;3.50;;;35.90;38.20;;;;;;5033731;28;20029;-10
2022/08/06 08:29:16;;;;;;;4.35;3.17;;;36.00;38.00;;;;;;5033982;28;20047;-9
2022/08/06 08:31:42;;;;;;;3.70;3.30;;;36.20;37.80;;;;;;5033518;28;20481;-10
2022/08/06 08:34:07;;;;;;;6.05;3.70;;;36.40;37.90;;;;;;5033877;28;20028;-11
2022/08/06 08:36:33;;;;;;;7.00;3.83;;;36.70;36.70;;;;;;5033194;28;20034;-10
2022/08/06 08:39:01;;;;;;;5.68;3.60;;;36.90;35.40;;;;;;5033717;28;20036;-10
2022/08/06 08:41:47;;;;;;;3.72;3.42;;;37.20;35.80;;;;;;5033436;28;20033;-10
2022/08/06 08:44:13;;;;;;;4.13;3.75;;;37.60;35.10;;;;;;5033720;28;20026;-10
2022/08/06 08:46:47;;;;;;;5.32;3.92;;;37.80;34.90;;;;;;5033326;28;20104;-10
2022/08/06 08:49:43;;;;;;;5.20;3.80;;;37.90;34.60;;;;;;5033327;28;20078;-10
2022/08/06 08:52:14;;;;;;;4.43;4.03;;;38.00;34.70;;;;;;5032978;28;20026;-11
2022/08/06 08:54:45;;;;;;;6.75;3.83;;;38.10;34.50;;;;;;5031898;28;20128;-10
2022/08/06 08:57:12;;;;;;;4.88;3.80;;;38.10;34.50;;;;;;5033238;28;20030;-10
2022/08/06 08:59:40;;;;;;;4.22;3.65;;;38.10;34.60;;;;;;5033174;28;20542;-11
2022/08/06 09:02:09;;;;;;;6.60;4.05;;;38.40;34.50;;;;;;5033430;28;20026;-10
2022/08/06 09:04:36;;;;;;;5.90;3.42;;;38.60;34.00;;;;;;5031296;28;20040;-10
2022/08/06 09:07:03;;;;;;;5.28;3.63;;;38.90;33.50;;;;;;5033269;28;20473;-11
2022/08/06 09:09:31;;;;;;;4.88;3.40;;;39.00;32.60;;;;;;5033394;28;20021;-10
2022/08/06 09:11:58;;;;;;;4.13;3.70;;;39.20;32.60;;;;;;5033372;28;20052;-11
2022/08/06 09:14:25;;;;;;;6.32;3.72;;;39.30;32.50;;;;;;5033124;28;20444;-10
2022/08/06 09:16:50;;;;;;;4.95;3.35;;;39.40;32.70;;;;;;5032947;28;20064;-10
2022/08/06 09:19:17;;;;;;;4.45;3.38;;;39.50;32.60;;;;;;5033395;28;20056;-11
2022/08/06 09:21:44;;;;;;;7.53;3.40;;;39.70;32.60;;;;;;5033182;28;20033;-11
2022/08/06 09:24:10;;;;;;;4.13;3.72;;;39.90;32.40;;;;;;5032857;28;20079;-11
2022/08/06 09:26:37;;;;;;;4.13;3.70;;;40.10;32.00;;;;;;5033343;28;20022;-10
2022/08/06 09:29:21;;;;;;;3.42;3.13;;;40.20;31.80;;;;;;5032889;28;20059;-10
2022/08/06 09:31:47;;;;;;;9.48;4.05;;;40.30;31.30;;;;;;5033197;28;20021;-10
2022/08/06 09:34:13;;;;;;;4.35;3.30;;;40.40;30.70;;;;;;5033475;28;20462;-11
2022/08/06 09:36:44;;;;;;;5.13;3.42;;;40.40;31.10;;;;;;5032451;28;20030;-10
2022/08/06 09:39:10;;;;;;;5.05;3.50;;;40.50;31.10;;;;;;5033181;28;20033;-9
2022/08/06 09:41:47;;;;;;;3.83;3.47;;;40.50;30.40;;;;;;5033105;28;20026;-10
2022/08/06 09:44:14;;;;;;;4.68;3.05;;;40.70;30.30;;;;;;5032859;28;20029;-9
2022/08/06 09:46:49;;;;;;;3.20;2.83;;;40.70;30.60;;;;;;5033178;28;20017;-10
2022/08/06 09:49:17;;;;;;;4.20;3.08;;;40.70;30.00;;;;;;5032775;28;20486;-11
2022/08/06 09:51:43;;;;;;;3.10;2.80;;;40.70;29.90;;;;;;5032917;28;20021;-10
2022/08/06 09:54:15;;;;;;;3.08;2.80;;;40.90;29.50;;;;;;5032435;28;20033;-10
2022/08/06 09:56:43;;;;;;;5.28;3.42;;;41.00;29.30;;;;;;5032653;28;20112;-10
2022/08/06 09:59:12;;;;;;;5.50;2.80;;;41.10;27.70;;;;;;5032939;28;20065;-10
2022/08/06 10:01:43;;;;;;;2.80;2.60;;;41.10;29.20;;;;;;5032966;28;20124;-10
2022/08/06 10:04:26;;;;;;;3.77;3.40;;;41.20;29.20;;;;;;5032991;28;20029;-10
2022/08/06 10:06:56;;;;;;;3.28;2.97;;;41.30;27.50;;;;;;5032999;28;20079;-11
2022/08/06 10:09:23;;;;;;;6.70;2.92;;;41.50;28.60;;;;;;5032625;28;20057;-10
2022/08/06 10:11:50;;;;;;;4.28;3.10;;;41.60;28.40;;;;;;5032549;28;20486;-10
2022/08/06 10:14:26;;;;;;;3.42;3.00;;;41.80;28.30;;;;;;5032345;28;20030;-11
2022/08/06 10:17:07;;;;;;;3.33;2.80;;;41.70;26.90;;;;;;5035466;28;20389;-10
2022/08/06 10:19:34;;;;;;;2.97;2.75;;;41.80;26.70;;;;;;5036371;28;20036;-11
2022/08/06 10:22:08;;;;;;;3.28;2.90;;;41.90;27.50;;;;;;5035902;28;20080;-11
2022/08/06 10:24:39;;;;;;;3.72;2.90;;;41.90;26.80;;;;;;5035713;28;20030;-11
2022/08/06 10:27:11;;;;;;;3.28;2.97;;;41.90;27.70;;;;;;5035938;28;20035;-8
2022/08/06 10:29:44;;;;;;;5.97;3.05;;;41.90;27.30;;;;;;5089988;22;20068;-15
2022/08/06 10:32:16;;;;;;;4.43;3.00;;;41.90;27.30;;;;;;5016492;28;20457;-14
2022/08/06 10:34:46;;;;;;;3.33;2.92;;;41.90;26.60;;;;;;5016097;28;20457;-14
2022/08/06 10:37:13;;;;;;;2.78;2.58;;;42.00;27.10;;;;;;5016204;28;20405;-14
2022/08/06 10:39:45;;;;;;;3.42;3.17;;;42.30;27.20;;;;;;5016224;28;20029;-13
2022/08/06 10:42:12;;;;;;;4.10;3.10;;;42.40;27.30;;;;;;5015946;28;20026;-13
2022/08/06 10:44:40;;;;;;;3.13;2.92;;;42.60;26.70;;;;;;5015693;28;20444;-13
2022/08/06 10:47:07;;;;;;;3.33;3.00;;;42.70;26.80;;;;;;5016413;28;20069;-13
2022/08/06 10:49:34;;;;;;;3.75;3.13;;;42.80;26.70;;;;;;5015750;28;20037;-13
2022/08/06 10:52:00;;;;;;;5.05;3.30;;;43.00;26.10;;;;;;5015812;28;20033;-15
2022/08/06 10:54:27;;;;;;;3.90;2.95;;;42.90;26.40;;;;;;5015438;28;20061;-13
2022/08/06 10:56:55;;;;;;;3.20;3.00;;;42.90;25.70;;;;;;5015852;28;20075;-13
2022/08/06 10:59:21;;;;;;;3.30;3.00;;;42.90;25.20;;;;;;5015342;28;20432;-13
2022/08/06 11:02:27;;;;;;;3.67;3.33;;;42.70;26.10;;;;;;5016242;28;20030;-15
2022/08/06 11:05:02;;;;;;;3.67;3.38;;;42.80;26.00;;;;;;4961488;28;20532;-13
2022/08/06 11:07:31;;;;;;;3.38;3.08;;;42.90;26.90;;;;;;5015351;28;20029;-12
2022/08/06 11:10:21;;;;;;;3.50;2.55;;;43.00;26.70;;;;;;4997726;28;20072;-13
2022/08/06 11:12:55;;;;;;;3.10;2.90;;;43.40;26.30;;;;;;4998312;28;20483;-13
2022/08/06 11:15:23;;;;;;;4.50;3.50;;;44.00;25.70;;;;;;5015333;28;20473;-13
2022/08/06 11:17:51;;;;;;;3.60;3.22;;;44.50;25.00;;;;;;5015723;28;20022;-12
2022/08/06 11:20:32;;;;;;;3.45;3.20;;;44.70;25.00;;;;;;5015568;28;20044;-13
2022/08/06 11:23:11;;;;;;;5.77;3.27;;;44.70;24.40;;;;;;4997581;28;20037;-13
2022/08/06 11:25:46;;;;;;;3.90;3.55;;;44.60;25.00;;;;;;5015024;28;20057;-13
2022/08/06 11:28:14;;;;;;;3.85;3.50;;;44.50;24.90;;;;;;5014670;28;20528;-13
2022/08/06 11:30:44;;;;;;;3.42;3.10;;;44.30;25.70;;;;;;5014952;28;20026;-12
2022/08/06 11:33:12;;;;;;;4.53;3.30;;;44.30;25.60;;;;;;5015204;28;20033;-13
2022/08/06 11:35:44;;;;;;;5.68;3.53;;;44.30;25.50;;;;;;5015033;28;20026;-13
2022/08/06 11:38:13;;;;;;;5.63;3.33;;;44.50;25.30;;;;;;5014859;28;20453;-13
2022/08/06 11:41:01;;;;;;;3.78;3.45;;;44.40;25.80;;;;;;5014709;28;20033;-13
2022/08/06 11:43:59;;;;;;;5.35;3.20;;;44.40;25.50;;;;;;5014942;28;20117;-13
2022/08/06 11:46:28;;;;;;;3.50;3.20;;;44.80;24.80;;;;;;4985067;28;20088;-13
2022/08/06 11:48:59;;;;;;;4.10;3.65;;;45.30;24.90;;;;;;5014916;28;20104;-13
2022/08/06 11:51:40;;;;;;;;;;;45.50;24.40;;;;;;5014956;28;20030;-13
2022/08/06 11:54:14;;;;;;;3.95;3.63;;;45.70;24.30;;;;;;5014506;28;20439;-13
2022/08/06 11:57:01;;;;;;;3.50;3.20;;;45.90;23.90;;;;;;5014392;28;20105;-12
2022/08/06 11:59:30;;;;;;;3.50;3.20;;;46.20;24.20;;;;;;5014334;28;20078;-13
2022/08/06 12:01:58;;;;;;;3.55;3.25;;;46.50;23.90;;;;;;5015211;28;20026;-13
2022/08/06 12:04:36;;;;;;;4.07;3.63;;;46.70;24.00;;;;;;4996582;28;20030;-13
2022/08/06 12:07:24;;;;;;;3.38;3.05;;;46.60;24.00;;;;;;5014824;28;20030;-13
2022/08/06 12:10:08;;;;;;;4.15;3.58;;;46.70;24.40;;;;;;5014307;28;20026;-13
2022/08/06 12:12:42;;;;;;;3.83;3.30;;;46.60;23.70;;;;;;5014016;28;20026;-13
2022/08/06 12:15:15;;;;;;;3.65;3.35;;;46.60;23.90;;;;;;5014814;28;20422;-13
2022/08/06 12:17:58;;;;;;;3.58;3.28;;;46.60;23.60;;;;;;5014025;28;20477;-13
2022/08/06 12:20:43;;;;;;;5.53;3.80;;;46.60;23.80;;;;;;5013932;28;20051;-13
2022/08/06 12:23:14;;;;;;;4.57;3.50;;;46.50;23.90;;;;;;5013885;28;20048;-13
2022/08/06 12:25:45;;;;;;;5.32;3.38;;;46.50;24.20;;;;;;5014077;28;20366;-13
2022/08/06 12:28:13;;;;;;;4.93;3.55;;;47.00;23.60;;;;;;5013872;28;20125;-13
2022/08/06 12:30:44;;;;;;;3.92;3.60;;;47.00;24.10;;;;;;5013831;28;20077;-13
2022/08/06 12:33:11;;;;;;;6.60;3.70;;;46.90;23.70;;;;;;5014222;28;20018;-13
2022/08/06 12:35:50;;;;;;;4.55;3.55;;;47.10;23.20;;;;;;5014006;28;20092;-13
2022/08/06 12:38:17;;;;;;;5.63;3.50;;;47.30;23.00;;;;;;5013584;28;20533;-13
2022/08/06 12:41:05;;;;;;;4.05;3.50;;;47.30;23.50;;;;;;5014383;28;20014;-13
2022/08/06 12:43:32;;;;;;;4.07;3.67;;;47.40;23.30;;;;;;5013678;28;20053;-13
2022/08/06 12:46:03;;;;;;;5.95;3.63;;;47.00;23.70;;;;;;5013920;28;20022;-13
2022/08/06 12:48:34;;;;;;;4.18;3.53;;;47.20;23.10;;;;;;5013494;28;20029;-13
2022/08/06 12:51:09;;;;;;;4.00;3.40;;;47.30;22.90;;;;;;5013915;28;20018;-13
2022/08/06 12:53:57;;;;;;;5.70;3.20;;;47.30;22.80;;;;;;5013570;28;20027;-13
2022/08/06 12:56:25;;;;;;;3.90;3.50;;;47.10;23.20;;;;;;5013301;28;20030;-13
2022/08/06 12:58:54;;;;;;;4.03;3.53;;;46.70;23.50;;;;;;4996392;28;20045;-13
2022/08/06 13:01:27;;;;;;;3.95;3.58;;;46.80;23.40;;;;;;5013719;28;20057;-13
2022/08/06 13:03:56;;;;;;;5.75;3.70;;;47.10;22.80;;;;;;5013458;28;20569;-13
2022/08/06 13:06:25;;;;;;;4.95;3.90;;;47.10;23.10;;;;;;5013467;28;20018;-14
2022/08/06 13:08:53;;;;;;;4.63;4.15;;;47.10;23.10;;;;;;5014056;28;20061;-13